sensor_id;sensor_type;location;lat;lon;timestamp;temperature;humidity
76203;DHT22;64985;46.364;17.008;2023-10-19T00:00:41;10.30;99.90
76203;DHT22;64985;46.364;17.008;2023-10-19T00:03:47;10.30;99.90
76203;DHT22;64985;46.364;17.008;2023-10-19T00:06:52;10.30;99.90
76203;DHT22;64985;46.364;17.008;2023-10-19T00:09:58;10.30;99.90
76203;DHT22;64985;46.364;17.008;2023-10-19T00:13:01;10.20;99.90
76203;DHT22;64985;46.364;17.008;2023-10-19T00:16:07;10.20;99.90
76203;DHT22;64985;46.364;17.008;2023-10-19T00:19:25;10.20;99.90
76203;DHT22;64985;46.364;17.008;2023-10-19T00:22:30;10.20;99.90
76203;DHT22;64985;46.364;17.008;2023-10-19T00:25:38;10.30;99.90
76203;DHT22;64985;46.364;17.008;2023-10-19T00:28:43;10.20;99.90
76203;DHT22;64985;46.364;17.008;2023-10-19T00:31:48;10.20;99.90
76203;DHT22;64985;46.364;17.008;2023-10-19T00:34:52;10.20;99.90
76203;DHT22;64985;46.364;17.008;2023-10-19T00:37:55;10.30;99.90
76203;DHT22;64985;46.364;17.008;2023-10-19T00:41:14;10.30;99.90
76203;DHT22;64985;46.364;17.008;2023-10-19T00:44:22;10.30;99.90
76203;DHT22;64985;46.364;17.008;2023-10-19T00:47:27;10.20;99.90
76203;DHT22;64985;46.364;17.008;2023-10-19T00:50:35;10.20;99.90
76203;DHT22;64985;46.364;17.008;2023-10-19T00:53:39;10.30;99.90
76203;DHT22;64985;46.364;17.008;2023-10-19T00:56:44;10.20;99.90
76203;DHT22;64985;46.364;17.008;2023-10-19T00:59:51;10.20;99.90
76203;DHT22;64985;46.364;17.008;2023-10-19T01:02:58;10.20;99.90
76203;DHT22;64985;46.364;17.008;2023-10-19T01:06:07;10.20;99.90
76203;DHT22;64985;46.364;17.008;2023-10-19T01:09:12;10.20;99.90
76203;DHT22;64985;46.364;17.008;2023-10-19T01:12:17;10.10;99.90
76203;DHT22;64985;46.364;17.008;2023-10-19T01:15:34;10.10;99.90
76203;DHT22;64985;46.364;17.008;2023-10-19T01:18:39;10.00;99.90
76203;DHT22;64985;46.364;17.008;2023-10-19T01:21:45;10.00;99.90
76203;DHT22;64985;46.364;17.008;2023-10-19T01:24:53;10.00;99.90
76203;DHT22;64985;46.364;17.008;2023-10-19T01:27:57;10.00;99.90
76203;DHT22;64985;46.364;17.008;2023-10-19T01:31:00;10.00;99.90
76203;DHT22;64985;46.364;17.008;2023-10-19T01:34:08;10.00;99.90
76203;DHT22;64985;46.364;17.008;2023-10-19T01:37:11;10.00;99.90
76203;DHT22;64985;46.364;17.008;2023-10-19T01:40:14;9.90;99.90
76203;DHT22;64985;46.364;17.008;2023-10-19T01:43:22;9.90;99.90
76203;DHT22;64985;46.364;17.008;2023-10-19T01:46:28;9.90;99.90
76203;DHT22;64985;46.364;17.008;2023-10-19T01:49:36;9.80;99.90
76203;DHT22;64985;46.364;17.008;2023-10-19T01:52:39;9.70;99.90
76203;DHT22;64985;46.364;17.008;2023-10-19T01:55:44;9.60;99.90
76203;DHT22;64985;46.364;17.008;2023-10-19T01:58:47;9.60;99.90
76203;DHT22;64985;46.364;17.008;2023-10-19T02:01:49;9.50;99.90
76203;DHT22;64985;46.364;17.008;2023-10-19T02:04:53;9.40;99.90
76203;DHT22;64985;46.364;17.008;2023-10-19T02:07:56;9.30;99.90
76203;DHT22;64985;46.364;17.008;2023-10-19T02:10:58;9.30;99.90
76203;DHT22;64985;46.364;17.008;2023-10-19T02:14:04;9.20;99.90
76203;DHT22;64985;46.364;17.008;2023-10-19T02:17:16;9.20;99.90
76203;DHT22;64985;46.364;17.008;2023-10-19T02:20:19;9.20;99.90
76203;DHT22;64985;46.364;17.008;2023-10-19T02:23:42;9.20;99.90
76203;DHT22;64985;46.364;17.008;2023-10-19T02:26:46;9.20;99.90
76203;DHT22;64985;46.364;17.008;2023-10-19T02:29:51;9.10;99.90
76203;DHT22;64985;46.364;17.008;2023-10-19T02:32:53;9.10;99.90
76203;DHT22;64985;46.364;17.008;2023-10-19T02:35:55;9.00;99.90
76203;DHT22;64985;46.364;17.008;2023-10-19T02:39:01;8.90;99.90
76203;DHT22;64985;46.364;17.008;2023-10-19T02:42:10;8.90;99.90
76203;DHT22;64985;46.364;17.008;2023-10-19T02:45:13;8.90;99.90
76203;DHT22;64985;46.364;17.008;2023-10-19T02:48:17;8.90;99.90
76203;DHT22;64985;46.364;17.008;2023-10-19T02:51:19;8.70;99.90
76203;DHT22;64985;46.364;17.008;2023-10-19T02:54:23;8.60;99.90
76203;DHT22;64985;46.364;17.008;2023-10-19T02:57:26;8.60;99.90
76203;DHT22;64985;46.364;17.008;2023-10-19T03:00:33;8.50;99.90
76203;DHT22;64985;46.364;17.008;2023-10-19T03:03:38;8.40;99.90
76203;DHT22;64985;46.364;17.008;2023-10-19T03:06:41;8.30;99.90
76203;DHT22;64985;46.364;17.008;2023-10-19T03:09:43;8.20;99.90
76203;DHT22;64985;46.364;17.008;2023-10-19T03:12:52;8.20;99.90
76203;DHT22;64985;46.364;17.008;2023-10-19T03:15:54;8.30;99.90
76203;DHT22;64985;46.364;17.008;2023-10-19T03:18:57;8.30;99.90
76203;DHT22;64985;46.364;17.008;2023-10-19T03:21:59;8.30;99.90
76203;DHT22;64985;46.364;17.008;2023-10-19T03:25:02;8.30;99.90
76203;DHT22;64985;46.364;17.008;2023-10-19T03:28:39;8.30;99.90
76203;DHT22;64985;46.364;17.008;2023-10-19T03:31:43;8.30;99.90
76203;DHT22;64985;46.364;17.008;2023-10-19T03:34:45;8.50;99.90
76203;DHT22;64985;46.364;17.008;2023-10-19T03:37:52;8.50;99.90
76203;DHT22;64985;46.364;17.008;2023-10-19T03:40:54;8.40;99.90
76203;DHT22;64985;46.364;17.008;2023-10-19T03:44:01;8.30;99.90
76203;DHT22;64985;46.364;17.008;2023-10-19T03:47:05;8.30;99.90
76203;DHT22;64985;46.364;17.008;2023-10-19T03:50:13;8.30;99.90
76203;DHT22;64985;46.364;17.008;2023-10-19T03:53:23;8.30;99.90
76203;DHT22;64985;46.364;17.008;2023-10-19T03:56:25;8.30;99.90
76203;DHT22;64985;46.364;17.008;2023-10-19T03:59:27;8.40;99.90
76203;DHT22;64985;46.364;17.008;2023-10-19T04:02:36;8.40;99.90
76203;DHT22;64985;46.364;17.008;2023-10-19T04:05:40;8.40;99.90
76203;DHT22;64985;46.364;17.008;2023-10-19T04:08:43;8.50;99.90
76203;DHT22;64985;46.364;17.008;2023-10-19T04:11:52;8.60;99.90
76203;DHT22;64985;46.364;17.008;2023-10-19T04:14:55;8.70;99.90
76203;DHT22;64985;46.364;17.008;2023-10-19T04:17:58;8.80;99.90
76203;DHT22;64985;46.364;17.008;2023-10-19T04:21:02;8.80;99.90
76203;DHT22;64985;46.364;17.008;2023-10-19T04:24:06;8.80;99.90
76203;DHT22;64985;46.364;17.008;2023-10-19T04:27:09;8.90;99.90
76203;DHT22;64985;46.364;17.008;2023-10-19T04:30:15;9.00;99.90
76203;DHT22;64985;46.364;17.008;2023-10-19T04:33:18;9.10;99.90
76203;DHT22;64985;46.364;17.008;2023-10-19T04:36:21;9.20;99.90
76203;DHT22;64985;46.364;17.008;2023-10-19T04:39:24;9.20;99.90
76203;DHT22;64985;46.364;17.008;2023-10-19T04:42:26;9.30;99.90
76203;DHT22;64985;46.364;17.008;2023-10-19T04:45:29;9.40;99.90
76203;DHT22;64985;46.364;17.008;2023-10-19T04:48:31;9.40;99.90
76203;DHT22;64985;46.364;17.008;2023-10-19T04:51:35;9.50;99.90
76203;DHT22;64985;46.364;17.008;2023-10-19T04:54:41;9.50;99.90
76203;DHT22;64985;46.364;17.008;2023-10-19T04:57:44;9.40;99.90
76203;DHT22;64985;46.364;17.008;2023-10-19T05:00:46;9.40;99.90
76203;DHT22;64985;46.364;17.008;2023-10-19T05:03:49;9.30;99.90
76203;DHT22;64985;46.364;17.008;2023-10-19T05:06:51;9.30;99.90
76203;DHT22;64985;46.364;17.008;2023-10-19T05:09:53;9.30;99.90
76203;DHT22;64985;46.364;17.008;2023-10-19T05:12:56;9.30;99.90
76203;DHT22;64985;46.364;17.008;2023-10-19T05:15:58;9.20;99.90
76203;DHT22;64985;46.364;17.008;2023-10-19T05:19:01;9.10;99.90
76203;DHT22;64985;46.364;17.008;2023-10-19T05:22:08;9.20;99.90
76203;DHT22;64985;46.364;17.008;2023-10-19T05:25:10;9.20;99.90
76203;DHT22;64985;46.364;17.008;2023-10-19T05:28:13;9.10;99.90
76203;DHT22;64985;46.364;17.008;2023-10-19T05:31:16;9.20;99.90
76203;DHT22;64985;46.364;17.008;2023-10-19T05:34:21;9.20;99.90
76203;DHT22;64985;46.364;17.008;2023-10-19T05:37:24;9.20;99.90
76203;DHT22;64985;46.364;17.008;2023-10-19T05:40:27;9.30;99.90
76203;DHT22;64985;46.364;17.008;2023-10-19T05:43:33;9.30;99.90
76203;DHT22;64985;46.364;17.008;2023-10-19T05:46:36;9.40;99.90
76203;DHT22;64985;46.364;17.008;2023-10-19T05:49:40;9.40;99.90
76203;DHT22;64985;46.364;17.008;2023-10-19T05:52:43;9.50;99.90
76203;DHT22;64985;46.364;17.008;2023-10-19T05:55:46;9.60;99.90
76203;DHT22;64985;46.364;17.008;2023-10-19T05:58:48;9.60;99.90
76203;DHT22;64985;46.364;17.008;2023-10-19T06:01:53;9.70;99.90
76203;DHT22;64985;46.364;17.008;2023-10-19T06:04:55;9.70;99.90
76203;DHT22;64985;46.364;17.008;2023-10-19T06:07:59;9.80;99.90
76203;DHT22;64985;46.364;17.008;2023-10-19T06:11:02;9.80;99.90
76203;DHT22;64985;46.364;17.008;2023-10-19T06:14:09;9.90;99.90
76203;DHT22;64985;46.364;17.008;2023-10-19T06:17:11;10.00;99.90
76203;DHT22;64985;46.364;17.008;2023-10-19T06:20:21;10.10;99.90
76203;DHT22;64985;46.364;17.008;2023-10-19T06:23:26;10.20;99.90
76203;DHT22;64985;46.364;17.008;2023-10-19T06:26:28;10.30;99.90
76203;DHT22;64985;46.364;17.008;2023-10-19T06:29:31;10.40;99.90
76203;DHT22;64985;46.364;17.008;2023-10-19T06:32:33;10.60;99.90
76203;DHT22;64985;46.364;17.008;2023-10-19T06:35:35;10.90;99.90
76203;DHT22;64985;46.364;17.008;2023-10-19T06:38:39;11.00;99.90
76203;DHT22;64985;46.364;17.008;2023-10-19T06:41:42;11.10;99.90
76203;DHT22;64985;46.364;17.008;2023-10-19T06:44:44;11.30;99.90
76203;DHT22;64985;46.364;17.008;2023-10-19T06:47:48;11.40;99.90
76203;DHT22;64985;46.364;17.008;2023-10-19T06:50:50;11.40;99.90
76203;DHT22;64985;46.364;17.008;2023-10-19T06:53:54;11.50;99.90
76203;DHT22;64985;46.364;17.008;2023-10-19T06:56:56;11.70;99.90
76203;DHT22;64985;46.364;17.008;2023-10-19T06:59:59;11.80;99.90
76203;DHT22;64985;46.364;17.008;2023-10-19T07:03:02;11.80;99.90
76203;DHT22;64985;46.364;17.008;2023-10-19T07:06:05;12.00;99.90
76203;DHT22;64985;46.364;17.008;2023-10-19T07:09:14;12.30;99.90
76203;DHT22;64985;46.364;17.008;2023-10-19T07:12:17;12.50;99.90
76203;DHT22;64985;46.364;17.008;2023-10-19T07:15:22;12.60;99.90
76203;DHT22;64985;46.364;17.008;2023-10-19T07:18:25;12.70;99.90
76203;DHT22;64985;46.364;17.008;2023-10-19T07:21:27;12.80;99.90
76203;DHT22;64985;46.364;17.008;2023-10-19T07:24:33;12.80;99.90
76203;DHT22;64985;46.364;17.008;2023-10-19T07:27:38;12.80;99.90
76203;DHT22;64985;46.364;17.008;2023-10-19T07:30:41;12.80;99.90
76203;DHT22;64985;46.364;17.008;2023-10-19T07:33:44;12.90;99.90
76203;DHT22;64985;46.364;17.008;2023-10-19T07:36:52;13.30;99.90
76203;DHT22;64985;46.364;17.008;2023-10-19T07:39:55;13.70;99.90
76203;DHT22;64985;46.364;17.008;2023-10-19T07:42:59;14.20;99.90
76203;DHT22;64985;46.364;17.008;2023-10-19T07:46:01;14.80;99.90
76203;DHT22;64985;46.364;17.008;2023-10-19T07:49:04;15.10;97.40
76203;DHT22;64985;46.364;17.008;2023-10-19T07:52:07;14.90;96.20
76203;DHT22;64985;46.364;17.008;2023-10-19T07:55:10;14.80;98.40
76203;DHT22;64985;46.364;17.008;2023-10-19T07:58:12;15.00;97.50
76203;DHT22;64985;46.364;17.008;2023-10-19T08:01:15;15.30;95.70
76203;DHT22;64985;46.364;17.008;2023-10-19T08:04:17;15.50;94.10
76203;DHT22;64985;46.364;17.008;2023-10-19T08:07:19;15.70;92.90
76203;DHT22;64985;46.364;17.008;2023-10-19T08:10:22;15.30;93.50
76203;DHT22;64985;46.364;17.008;2023-10-19T08:13:24;15.00;96.40
76203;DHT22;64985;46.364;17.008;2023-10-19T08:16:32;15.00;97.40
76203;DHT22;64985;46.364;17.008;2023-10-19T08:19:35;15.00;96.00
76203;DHT22;64985;46.364;17.008;2023-10-19T08:22:38;15.00;97.50
76203;DHT22;64985;46.364;17.008;2023-10-19T08:25:40;15.00;97.30
76203;DHT22;64985;46.364;17.008;2023-10-19T08:28:57;15.70;95.10
76203;DHT22;64985;46.364;17.008;2023-10-19T08:32:01;15.80;93.30
76203;DHT22;64985;46.364;17.008;2023-10-19T08:35:03;15.60;95.70
76203;DHT22;64985;46.364;17.008;2023-10-19T08:38:06;15.50;96.00
76203;DHT22;64985;46.364;17.008;2023-10-19T08:41:15;15.60;96.30
76203;DHT22;64985;46.364;17.008;2023-10-19T08:44:17;15.60;96.90
76203;DHT22;64985;46.364;17.008;2023-10-19T08:47:20;15.70;96.20
76203;DHT22;64985;46.364;17.008;2023-10-19T08:50:33;15.80;96.80
76203;DHT22;64985;46.364;17.008;2023-10-19T08:53:39;16.00;95.90
76203;DHT22;64985;46.364;17.008;2023-10-19T08:56:42;16.10;96.20
76203;DHT22;64985;46.364;17.008;2023-10-19T08:59:46;16.10;96.00
76203;DHT22;64985;46.364;17.008;2023-10-19T09:02:48;16.20;95.60
76203;DHT22;64985;46.364;17.008;2023-10-19T09:05:51;16.30;96.20
76203;DHT22;64985;46.364;17.008;2023-10-19T09:08:54;16.50;95.50
76203;DHT22;64985;46.364;17.008;2023-10-19T09:11:56;16.90;93.50
76203;DHT22;64985;46.364;17.008;2023-10-19T09:14:59;17.60;93.50
76203;DHT22;64985;46.364;17.008;2023-10-19T09:21:21;17.90;89.70
76203;DHT22;64985;46.364;17.008;2023-10-19T09:24:26;17.70;90.30
76203;DHT22;64985;46.364;17.008;2023-10-19T09:27:29;18.30;91.10
76203;DHT22;64985;46.364;17.008;2023-10-19T09:30:32;18.20;87.00
76203;DHT22;64985;46.364;17.008;2023-10-19T09:33:35;18.50;86.60
76203;DHT22;64985;46.364;17.008;2023-10-19T09:36:37;18.30;86.80
76203;DHT22;64985;46.364;17.008;2023-10-19T09:39:40;18.40;87.30
76203;DHT22;64985;46.364;17.008;2023-10-19T09:42:47;18.30;86.10
76203;DHT22;64985;46.364;17.008;2023-10-19T09:45:53;18.70;86.40
76203;DHT22;64985;46.364;17.008;2023-10-19T09:48:59;19.20;84.50
76203;DHT22;64985;46.364;17.008;2023-10-19T09:52:03;19.10;82.90
76203;DHT22;64985;46.364;17.008;2023-10-19T09:58:21;19.40;84.70
76203;DHT22;64985;46.364;17.008;2023-10-19T10:01:25;19.60;82.90
76203;DHT22;64985;46.364;17.008;2023-10-19T10:04:33;19.60;84.80
76203;DHT22;64985;46.364;17.008;2023-10-19T10:07:36;19.70;85.20
76203;DHT22;64985;46.364;17.008;2023-10-19T10:10:44;19.40;83.40
76203;DHT22;64985;46.364;17.008;2023-10-19T10:13:47;19.40;84.10
76203;DHT22;64985;46.364;17.008;2023-10-19T10:17:03;19.40;82.40
76203;DHT22;64985;46.364;17.008;2023-10-19T10:23:21;20.20;82.20
76203;DHT22;64985;46.364;17.008;2023-10-19T10:26:27;20.20;83.50
76203;DHT22;64985;46.364;17.008;2023-10-19T10:29:31;20.60;82.70
76203;DHT22;64985;46.364;17.008;2023-10-19T10:32:51;20.90;80.40
76203;DHT22;64985;46.364;17.008;2023-10-19T10:35:58;21.30;79.00
76203;DHT22;64985;46.364;17.008;2023-10-19T10:39:02;21.70;76.40
76203;DHT22;64985;46.364;17.008;2023-10-19T10:42:09;22.10;75.80
76203;DHT22;64985;46.364;17.008;2023-10-19T10:45:19;20.90;77.20
76203;DHT22;64985;46.364;17.008;2023-10-19T10:48:23;20.60;80.00
76203;DHT22;64985;46.364;17.008;2023-10-19T10:51:27;20.50;78.80
76203;DHT22;64985;46.364;17.008;2023-10-19T10:54:32;20.30;80.20
76203;DHT22;64985;46.364;17.008;2023-10-19T10:57:34;20.20;79.30
76203;DHT22;64985;46.364;17.008;2023-10-19T11:00:44;20.10;80.80
76203;DHT22;64985;46.364;17.008;2023-10-19T11:03:47;20.00;80.50
76203;DHT22;64985;46.364;17.008;2023-10-19T11:06:52;20.10;82.80
76203;DHT22;64985;46.364;17.008;2023-10-19T11:09:55;20.10;81.60
76203;DHT22;64985;46.364;17.008;2023-10-19T11:13:08;20.20;81.50
76203;DHT22;64985;46.364;17.008;2023-10-19T11:16:10;20.00;82.90
76203;DHT22;64985;46.364;17.008;2023-10-19T11:19:12;20.00;83.60
76203;DHT22;64985;46.364;17.008;2023-10-19T11:22:15;20.10;83.30
76203;DHT22;64985;46.364;17.008;2023-10-19T11:25:18;20.00;82.50
76203;DHT22;64985;46.364;17.008;2023-10-19T11:28:21;19.90;83.70
76203;DHT22;64985;46.364;17.008;2023-10-19T11:31:24;19.90;82.20
76203;DHT22;64985;46.364;17.008;2023-10-19T11:34:26;19.90;82.60
76203;DHT22;64985;46.364;17.008;2023-10-19T11:37:52;20.10;82.20
76203;DHT22;64985;46.364;17.008;2023-10-19T11:40:57;20.20;82.40
76203;DHT22;64985;46.364;17.008;2023-10-19T11:44:00;20.60;80.70
76203;DHT22;64985;46.364;17.008;2023-10-19T11:47:02;20.90;80.30
76203;DHT22;64985;46.364;17.008;2023-10-19T11:50:06;21.00;79.60
76203;DHT22;64985;46.364;17.008;2023-10-19T11:53:08;20.90;81.20
76203;DHT22;64985;46.364;17.008;2023-10-19T11:56:12;20.80;80.90
76203;DHT22;64985;46.364;17.008;2023-10-19T11:59:15;20.80;81.00
76203;DHT22;64985;46.364;17.008;2023-10-19T12:02:18;20.80;81.20
76203;DHT22;64985;46.364;17.008;2023-10-19T12:05:21;20.80;81.00
76203;DHT22;64985;46.364;17.008;2023-10-19T12:08:23;20.70;80.30
76203;DHT22;64985;46.364;17.008;2023-10-19T12:11:26;20.70;81.20
76203;DHT22;64985;46.364;17.008;2023-10-19T12:14:28;20.50;81.30
76203;DHT22;64985;46.364;17.008;2023-10-19T12:17:31;20.50;81.50
76203;DHT22;64985;46.364;17.008;2023-10-19T12:20:34;20.60;85.70
76203;DHT22;64985;46.364;17.008;2023-10-19T12:23:42;20.50;83.30
76203;DHT22;64985;46.364;17.008;2023-10-19T12:26:45;20.70;84.40
76203;DHT22;64985;46.364;17.008;2023-10-19T12:29:48;20.70;82.90
76203;DHT22;64985;46.364;17.008;2023-10-19T12:32:52;20.80;84.00
76203;DHT22;64985;46.364;17.008;2023-10-19T12:35:54;20.90;83.70
76203;DHT22;64985;46.364;17.008;2023-10-19T12:38:59;20.90;82.20
76203;DHT22;64985;46.364;17.008;2023-10-19T12:42:02;20.90;83.50
76203;DHT22;64985;46.364;17.008;2023-10-19T12:45:05;21.00;84.30
76203;DHT22;64985;46.364;17.008;2023-10-19T12:48:09;21.20;81.80
76203;DHT22;64985;46.364;17.008;2023-10-19T12:51:13;21.40;83.20
76203;DHT22;64985;46.364;17.008;2023-10-19T12:54:16;21.20;83.80
76203;DHT22;64985;46.364;17.008;2023-10-19T12:57:19;21.10;83.80
76203;DHT22;64985;46.364;17.008;2023-10-19T13:00:23;20.90;84.30
76203;DHT22;64985;46.364;17.008;2023-10-19T13:03:38;20.90;85.30
76203;DHT22;64985;46.364;17.008;2023-10-19T13:06:42;20.80;85.90
76203;DHT22;64985;46.364;17.008;2023-10-19T13:09:45;20.80;87.40
76203;DHT22;64985;46.364;17.008;2023-10-19T13:12:47;20.60;86.50
76203;DHT22;64985;46.364;17.008;2023-10-19T13:15:50;20.60;85.30
76203;DHT22;64985;46.364;17.008;2023-10-19T13:18:52;20.50;87.10
76203;DHT22;64985;46.364;17.008;2023-10-19T13:21:54;20.40;86.90
76203;DHT22;64985;46.364;17.008;2023-10-19T13:24:57;20.30;88.60
76203;DHT22;64985;46.364;17.008;2023-10-19T13:27:59;20.20;88.90
76203;DHT22;64985;46.364;17.008;2023-10-19T13:31:01;20.20;90.30
76203;DHT22;64985;46.364;17.008;2023-10-19T13:34:05;20.20;89.80
76203;DHT22;64985;46.364;17.008;2023-10-19T13:37:12;20.10;90.80
76203;DHT22;64985;46.364;17.008;2023-10-19T13:40:14;20.10;90.90
76203;DHT22;64985;46.364;17.008;2023-10-19T13:43:18;20.00;91.00
76203;DHT22;64985;46.364;17.008;2023-10-19T13:46:20;20.10;91.80
76203;DHT22;64985;46.364;17.008;2023-10-19T13:49:25;20.00;91.80
76203;DHT22;64985;46.364;17.008;2023-10-19T13:52:27;20.10;91.20
76203;DHT22;64985;46.364;17.008;2023-10-19T13:55:30;20.10;91.90
76203;DHT22;64985;46.364;17.008;2023-10-19T13:58:33;20.10;91.30
76203;DHT22;64985;46.364;17.008;2023-10-19T14:01:35;20.00;92.40
76203;DHT22;64985;46.364;17.008;2023-10-19T14:04:37;20.00;93.10
76203;DHT22;64985;46.364;17.008;2023-10-19T14:07:40;20.00;93.10
76203;DHT22;64985;46.364;17.008;2023-10-19T14:10:42;20.00;93.10
76203;DHT22;64985;46.364;17.008;2023-10-19T14:13:45;20.10;95.30
76203;DHT22;64985;46.364;17.008;2023-10-19T14:16:47;20.00;94.80
76203;DHT22;64985;46.364;17.008;2023-10-19T14:19:52;20.10;94.70
76203;DHT22;64985;46.364;17.008;2023-10-19T14:22:55;20.10;94.20
76203;DHT22;64985;46.364;17.008;2023-10-19T14:25:57;20.10;93.80
76203;DHT22;64985;46.364;17.008;2023-10-19T14:29:00;20.10;93.80
76203;DHT22;64985;46.364;17.008;2023-10-19T14:32:03;20.10;94.80
76203;DHT22;64985;46.364;17.008;2023-10-19T14:35:05;20.00;94.40
76203;DHT22;64985;46.364;17.008;2023-10-19T14:38:11;19.90;95.20
76203;DHT22;64985;46.364;17.008;2023-10-19T14:41:15;19.90;96.30
76203;DHT22;64985;46.364;17.008;2023-10-19T14:44:18;19.70;95.90
76203;DHT22;64985;46.364;17.008;2023-10-19T14:47:20;19.70;97.40
76203;DHT22;64985;46.364;17.008;2023-10-19T14:50:23;19.60;98.40
76203;DHT22;64985;46.364;17.008;2023-10-19T14:53:26;19.60;99.40
76203;DHT22;64985;46.364;17.008;2023-10-19T14:56:28;19.40;99.90
76203;DHT22;64985;46.364;17.008;2023-10-19T14:59:30;19.40;99.90
76203;DHT22;64985;46.364;17.008;2023-10-19T15:02:35;19.20;99.90
76203;DHT22;64985;46.364;17.008;2023-10-19T15:05:38;19.20;99.90
76203;DHT22;64985;46.364;17.008;2023-10-19T15:08:43;19.20;99.90
76203;DHT22;64985;46.364;17.008;2023-10-19T15:11:46;19.20;99.90
76203;DHT22;64985;46.364;17.008;2023-10-19T15:14:49;19.10;99.90
76203;DHT22;64985;46.364;17.008;2023-10-19T15:17:52;19.00;99.90
76203;DHT22;64985;46.364;17.008;2023-10-19T15:20:54;18.80;99.90
76203;DHT22;64985;46.364;17.008;2023-10-19T15:23:57;18.70;99.90
76203;DHT22;64985;46.364;17.008;2023-10-19T15:26:59;18.60;99.90
76203;DHT22;64985;46.364;17.008;2023-10-19T15:30:03;18.40;99.90
76203;DHT22;64985;46.364;17.008;2023-10-19T15:33:07;18.30;99.90
76203;DHT22;64985;46.364;17.008;2023-10-19T15:36:11;18.20;99.90
76203;DHT22;64985;46.364;17.008;2023-10-19T15:39:13;18.20;99.90
76203;DHT22;64985;46.364;17.008;2023-10-19T15:42:16;18.00;99.90
76203;DHT22;64985;46.364;17.008;2023-10-19T15:45:20;18.00;99.90
76203;DHT22;64985;46.364;17.008;2023-10-19T15:48:22;17.90;99.90
76203;DHT22;64985;46.364;17.008;2023-10-19T15:51:25;17.80;99.90
76203;DHT22;64985;46.364;17.008;2023-10-19T15:54:28;17.70;99.90
76203;DHT22;64985;46.364;17.008;2023-10-19T15:57:30;17.60;99.90
76203;DHT22;64985;46.364;17.008;2023-10-19T16:00:35;17.50;99.90
76203;DHT22;64985;46.364;17.008;2023-10-19T16:03:40;17.40;99.90
76203;DHT22;64985;46.364;17.008;2023-10-19T16:06:42;17.40;99.90
76203;DHT22;64985;46.364;17.008;2023-10-19T16:09:47;17.40;99.90
76203;DHT22;64985;46.364;17.008;2023-10-19T16:12:53;17.30;99.90
76203;DHT22;64985;46.364;17.008;2023-10-19T16:15:56;17.20;99.90
76203;DHT22;64985;46.364;17.008;2023-10-19T16:18:59;17.20;99.90
76203;DHT22;64985;46.364;17.008;2023-10-19T16:22:02;17.10;99.90
76203;DHT22;64985;46.364;17.008;2023-10-19T16:25:05;17.00;99.90
76203;DHT22;64985;46.364;17.008;2023-10-19T16:28:08;17.00;99.90
76203;DHT22;64985;46.364;17.008;2023-10-19T16:31:11;16.90;99.90
76203;DHT22;64985;46.364;17.008;2023-10-19T16:34:16;17.00;99.90
76203;DHT22;64985;46.364;17.008;2023-10-19T16:37:20;17.00;99.90
76203;DHT22;64985;46.364;17.008;2023-10-19T16:40:28;17.00;99.90
76203;DHT22;64985;46.364;17.008;2023-10-19T16:43:32;17.10;99.90
76203;DHT22;64985;46.364;17.008;2023-10-19T16:46:39;17.00;99.90
76203;DHT22;64985;46.364;17.008;2023-10-19T16:49:43;17.10;99.90
76203;DHT22;64985;46.364;17.008;2023-10-19T16:52:46;17.10;99.90
76203;DHT22;64985;46.364;17.008;2023-10-19T16:56:06;17.20;99.90
76203;DHT22;64985;46.364;17.008;2023-10-19T16:59:20;17.10;99.90
76203;DHT22;64985;46.364;17.008;2023-10-19T17:02:24;17.00;99.90
76203;DHT22;64985;46.364;17.008;2023-10-19T17:05:29;16.80;99.90
76203;DHT22;64985;46.364;17.008;2023-10-19T17:08:33;16.60;99.90
76203;DHT22;64985;46.364;17.008;2023-10-19T17:11:37;16.60;99.90
76203;DHT22;64985;46.364;17.008;2023-10-19T17:14:41;16.60;99.90
76203;DHT22;64985;46.364;17.008;2023-10-19T17:17:45;16.80;99.90
76203;DHT22;64985;46.364;17.008;2023-10-19T17:20:51;16.70;99.90
76203;DHT22;64985;46.364;17.008;2023-10-19T17:23:55;16.50;99.90
76203;DHT22;64985;46.364;17.008;2023-10-19T17:26:59;16.40;99.90
76203;DHT22;64985;46.364;17.008;2023-10-19T17:30:03;16.30;99.90
76203;DHT22;64985;46.364;17.008;2023-10-19T17:33:08;16.20;99.90
76203;DHT22;64985;46.364;17.008;2023-10-19T17:36:14;16.20;99.90
76203;DHT22;64985;46.364;17.008;2023-10-19T17:39:19;16.10;99.90
76203;DHT22;64985;46.364;17.008;2023-10-19T17:42:25;15.90;99.90
76203;DHT22;64985;46.364;17.008;2023-10-19T17:45:32;15.80;99.90
76203;DHT22;64985;46.364;17.008;2023-10-19T17:48:40;15.60;99.90
76203;DHT22;64985;46.364;17.008;2023-10-19T17:51:44;15.60;99.90
76203;DHT22;64985;46.364;17.008;2023-10-19T17:54:51;15.50;99.90
76203;DHT22;64985;46.364;17.008;2023-10-19T17:57:56;15.30;99.90
76203;DHT22;64985;46.364;17.008;2023-10-19T18:01:02;15.30;99.90
76203;DHT22;64985;46.364;17.008;2023-10-19T18:04:09;15.10;99.90
76203;DHT22;64985;46.364;17.008;2023-10-19T18:07:16;15.00;99.90
76203;DHT22;64985;46.364;17.008;2023-10-19T18:10:25;14.90;99.90
76203;DHT22;64985;46.364;17.008;2023-10-19T18:13:33;14.80;99.90
76203;DHT22;64985;46.364;17.008;2023-10-19T18:16:44;14.70;99.90
76203;DHT22;64985;46.364;17.008;2023-10-19T18:19:50;14.60;99.90
76203;DHT22;64985;46.364;17.008;2023-10-19T18:22:54;14.50;99.90
76203;DHT22;64985;46.364;17.008;2023-10-19T18:25:59;14.40;99.90
76203;DHT22;64985;46.364;17.008;2023-10-19T18:29:04;14.40;99.90
76203;DHT22;64985;46.364;17.008;2023-10-19T18:32:08;14.40;99.90
76203;DHT22;64985;46.364;17.008;2023-10-19T18:35:14;14.50;99.90
76203;DHT22;64985;46.364;17.008;2023-10-19T18:38:18;14.50;99.90
76203;DHT22;64985;46.364;17.008;2023-10-19T18:41:23;14.60;99.90
76203;DHT22;64985;46.364;17.008;2023-10-19T18:44:29;14.60;99.90
76203;DHT22;64985;46.364;17.008;2023-10-19T18:47:32;14.60;99.90
76203;DHT22;64985;46.364;17.008;2023-10-19T18:50:38;14.60;99.90
76203;DHT22;64985;46.364;17.008;2023-10-19T18:53:41;14.60;99.90
76203;DHT22;64985;46.364;17.008;2023-10-19T18:56:45;14.70;99.90
76203;DHT22;64985;46.364;17.008;2023-10-19T18:59:49;14.80;99.90
76203;DHT22;64985;46.364;17.008;2023-10-19T19:02:55;15.00;99.90
76203;DHT22;64985;46.364;17.008;2023-10-19T19:06:03;15.80;99.90
76203;DHT22;64985;46.364;17.008;2023-10-19T19:09:13;16.20;99.90
76203;DHT22;64985;46.364;17.008;2023-10-19T19:12:19;16.80;99.90
76203;DHT22;64985;46.364;17.008;2023-10-19T19:15:22;17.20;99.90
76203;DHT22;64985;46.364;17.008;2023-10-19T19:18:25;17.50;99.90
76203;DHT22;64985;46.364;17.008;2023-10-19T19:21:27;17.80;99.90